createdAt,value
2023-03-18T00:01:55.152Z,6.75
2023-03-18T00:04:22.319Z,7.03
2023-03-18T00:06:49.433Z,6.90
2023-03-18T00:09:17.293Z,6.72
2023-03-18T00:11:46.337Z,7.57
2023-03-18T00:14:13.606Z,6.80
2023-03-18T00:16:41.017Z,6.45
2023-03-18T00:19:08.441Z,6.75
2023-03-18T00:21:35.517Z,7.93
2023-03-18T00:24:02.612Z,6.93
2023-03-18T00:26:30.050Z,6.85
2023-03-18T00:28:58.099Z,6.95
2023-03-18T00:31:26.471Z,7.53
2023-03-18T00:33:53.701Z,7.70
2023-03-18T00:36:25.860Z,7.35
2023-03-18T00:38:57.938Z,7.32
2023-03-18T00:41:30.045Z,7.18
2023-03-18T00:43:57.260Z,7.13
2023-03-18T00:46:35.834Z,7.18
2023-03-18T00:49:05.757Z,7.50
2023-03-18T00:51:35.900Z,7.18
2023-03-18T00:54:07.471Z,7.38
2023-03-18T00:56:37.820Z,7.43
2023-03-18T00:59:06.823Z,7.85
2023-03-18T01:01:34.801Z,7.78
2023-03-18T01:04:02.254Z,7.63
2023-03-18T01:06:32.713Z,7.43
2023-03-18T01:09:01.657Z,8.32
2023-03-18T01:11:29.066Z,7.03
2023-03-18T01:13:56.981Z,7.25
2023-03-18T01:16:24.411Z,7.95
2023-03-18T01:18:52.660Z,8.30
2023-03-18T01:21:20.178Z,7.68
2023-03-18T01:23:55.357Z,7.43
2023-03-18T01:26:23.298Z,8.20
2023-03-18T01:28:50.398Z,7.72
2023-03-18T01:31:19.252Z,7.88
2023-03-18T01:33:47.989Z,8.15
2023-03-18T01:36:15.796Z,8.13
2023-03-18T01:38:45.152Z,7.50
2023-03-18T01:41:14.772Z,8.15
2023-03-18T01:43:43.038Z,8.35
2023-03-18T01:46:38.867Z,7.47
2023-03-18T01:49:12.784Z,8.15
2023-03-18T01:52:08.351Z,7.88
2023-03-18T01:54:43.813Z,8.32
2023-03-18T01:57:11.729Z,7.75
2023-03-18T01:59:42.118Z,8.35
2023-03-18T02:02:12.224Z,8.32
2023-03-18T02:04:50.614Z,8.13
2023-03-18T02:07:21.171Z,7.88
2023-03-18T02:09:50.166Z,7.68
2023-03-18T02:12:29.486Z,7.60
2023-03-18T02:15:02.689Z,8.95
2023-03-18T02:17:36.615Z,7.70
2023-03-18T02:20:43.431Z,7.40
2023-03-18T02:24:06.809Z,8.40
2023-03-18T02:26:59.881Z,7.80
2023-03-18T02:29:35.501Z,8.63
2023-03-18T02:32:07.703Z,8.82
2023-03-18T02:34:37.880Z,8.70
2023-03-18T02:37:08.056Z,8.80
2023-03-18T02:39:37.674Z,7.95
2023-03-18T02:42:05.572Z,8.18
2023-03-18T02:44:44.144Z,8.20
2023-03-18T02:47:33.822Z,7.97
2023-03-18T02:50:01.081Z,7.35
2023-03-18T02:52:28.178Z,8.57
2023-03-18T02:54:59.312Z,7.97
2023-03-18T02:57:28.168Z,8.48
2023-03-18T02:59:57.291Z,8.75
2023-03-18T03:02:24.664Z,8.75
2023-03-18T03:04:52.023Z,8.32
2023-03-18T03:07:20.316Z,8.50
2023-03-18T03:09:51.662Z,8.98
2023-03-18T03:12:19.982Z,8.82
2023-03-18T03:14:51.859Z,7.97
2023-03-18T03:17:19.801Z,8.82
2023-03-18T03:19:46.778Z,8.52
2023-03-18T03:22:16.123Z,8.30
2023-03-18T03:24:43.822Z,7.90
2023-03-18T03:27:11.283Z,8.25
2023-03-18T03:29:38.802Z,7.80
2023-03-18T03:32:06.182Z,8.63
2023-03-18T03:34:33.925Z,8.45
2023-03-18T03:37:01.344Z,8.20
2023-03-18T03:39:28.612Z,8.25
2023-03-18T03:41:55.666Z,8.38
2023-03-18T03:44:22.701Z,8.27
2023-03-18T03:46:49.878Z,9.13
2023-03-18T03:49:17.147Z,7.75
2023-03-18T03:51:44.496Z,8.43
2023-03-18T03:54:13.458Z,8.65
2023-03-18T03:56:41.177Z,8.23
2023-03-18T03:59:08.701Z,8.10
2023-03-18T04:01:56.070Z,9.75
2023-03-18T04:04:24.320Z,8.52
2023-03-18T04:06:51.728Z,8.38
2023-03-18T04:09:18.940Z,8.00
2023-03-18T04:11:46.055Z,8.43
2023-03-18T04:14:13.734Z,7.90
2023-03-18T04:16:40.789Z,8.63
2023-03-18T04:19:10.357Z,8.85
2023-03-18T04:21:37.493Z,8.75
2023-03-18T04:24:05.130Z,8.48
2023-03-18T04:26:33.110Z,8.57
2023-03-18T04:29:03.972Z,8.32
2023-03-18T04:31:32.393Z,9.07
2023-03-18T04:34:00.198Z,7.85
2023-03-18T04:36:28.581Z,8.55
2023-03-18T04:38:57.258Z,8.18
2023-03-18T04:41:25.157Z,8.77
2023-03-18T04:43:54.759Z,8.88
2023-03-18T04:46:30.111Z,9.25
2023-03-18T04:48:58.616Z,8.32
2023-03-18T04:51:27.628Z,9.13
2023-03-18T04:53:56.589Z,8.45
2023-03-18T04:56:26.612Z,8.60
2023-03-18T04:58:54.306Z,9.02
2023-03-18T05:01:26.893Z,8.85
2023-03-18T05:03:54.094Z,8.48
2023-03-18T05:06:27.655Z,8.77
2023-03-18T05:08:59.133Z,9.48
2023-03-18T05:11:29.522Z,8.82
2023-03-18T05:16:28.267Z,8.40
2023-03-18T05:18:55.652Z,9.13
2023-03-18T05:21:22.732Z,8.15
2023-03-18T05:23:49.781Z,8.85
2023-03-18T05:26:17.398Z,8.82
2023-03-18T05:28:47.140Z,9.13
2023-03-18T05:31:34.432Z,9.50
2023-03-18T05:34:02.318Z,9.45
2023-03-18T05:36:33.848Z,8.95
2023-03-18T05:39:05.342Z,8.77
2023-03-18T05:41:32.645Z,8.73
2023-03-18T05:44:00.505Z,9.45
2023-03-18T05:46:29.455Z,8.93
2023-03-18T05:49:23.513Z,8.75
2023-03-18T05:52:13.969Z,9.82
2023-03-18T05:54:44.931Z,10.02
2023-03-18T05:57:15.442Z,9.20
2023-03-18T05:59:44.099Z,9.35
2023-03-18T06:02:11.902Z,9.75
2023-03-18T06:04:40.382Z,9.30
2023-03-18T06:07:07.599Z,10.27
2023-03-18T06:09:34.698Z,10.18
2023-03-18T06:12:03.724Z,9.73
2023-03-18T06:14:31.613Z,9.82
2023-03-18T06:17:01.876Z,10.25
2023-03-18T06:19:30.860Z,9.93
2023-03-18T06:21:58.987Z,10.10
2023-03-18T06:24:26.424Z,9.15
2023-03-18T06:26:55.548Z,10.32
2023-03-18T06:29:22.873Z,9.52
2023-03-18T06:31:50.120Z,9.52
2023-03-18T06:34:22.259Z,10.00
2023-03-18T06:36:49.412Z,9.73
2023-03-18T06:39:20.088Z,9.48
2023-03-18T06:41:47.216Z,9.63
2023-03-18T06:44:31.580Z,9.43
2023-03-18T06:47:07.184Z,9.23
2023-03-18T06:49:37.820Z,9.40
2023-03-18T06:52:11.293Z,9.68
2023-03-18T06:54:38.493Z,9.50
2023-03-18T06:57:06.623Z,9.90
2023-03-18T06:59:35.623Z,9.30
2023-03-18T07:02:05.575Z,9.93
2023-03-18T07:04:34.017Z,9.52
2023-03-18T07:07:01.300Z,9.60
2023-03-18T07:09:28.748Z,9.45
2023-03-18T07:14:26.574Z,9.73
2023-03-18T07:16:53.673Z,9.50
2023-03-18T07:19:21.030Z,9.50
2023-03-18T07:21:49.738Z,10.30
2023-03-18T07:24:17.523Z,10.30
2023-03-18T07:26:44.624Z,10.25
2023-03-18T07:29:11.727Z,9.60
2023-03-18T07:31:38.807Z,9.90
2023-03-18T07:34:06.085Z,10.52
2023-03-18T07:36:33.430Z,10.18
2023-03-18T07:39:00.903Z,9.57
2023-03-18T07:41:28.160Z,10.15
2023-03-18T07:43:55.773Z,11.18
2023-03-18T07:46:23.382Z,11.18
2023-03-18T07:48:50.482Z,10.98
2023-03-18T07:51:17.732Z,11.45
2023-03-18T07:53:45.481Z,11.32
2023-03-18T07:56:12.557Z,11.15
2023-03-18T07:58:39.662Z,10.30
2023-03-18T08:01:07.740Z,11.23
2023-03-18T08:03:35.027Z,11.50
2023-03-18T08:06:02.984Z,11.38
2023-03-18T08:08:29.951Z,10.30
2023-03-18T08:11:00.078Z,11.52
2023-03-18T08:13:27.266Z,10.50
2023-03-18T08:15:54.848Z,10.27
2023-03-18T08:18:22.742Z,10.82
2023-03-18T08:20:50.181Z,11.63
2023-03-18T08:23:17.524Z,10.27
2023-03-18T08:25:49.880Z,10.85
2023-03-18T08:28:18.270Z,10.18
2023-03-18T08:30:45.423Z,10.77
2023-03-18T08:33:12.930Z,10.25
2023-03-18T08:35:44.191Z,10.32
2023-03-18T08:38:11.318Z,11.10
2023-03-18T08:40:41.451Z,11.60
2023-03-18T08:43:09.486Z,11.20
2023-03-18T08:45:37.489Z,10.43
2023-03-18T08:48:04.786Z,10.90
2023-03-18T08:50:32.224Z,11.07
2023-03-18T08:53:00.813Z,10.27
2023-03-18T08:55:34.667Z,11.80
2023-03-18T08:58:02.371Z,11.27
2023-03-18T09:00:29.715Z,11.25
2023-03-18T09:02:56.899Z,10.50
2023-03-18T09:05:25.197Z,10.27
2023-03-18T09:07:53.396Z,11.05
2023-03-18T09:10:21.641Z,10.75
2023-03-18T09:12:50.130Z,9.82
2023-03-18T09:15:17.723Z,9.73
2023-03-18T09:17:59.933Z,10.27
2023-03-18T09:20:33.608Z,10.43
2023-03-18T09:23:01.172Z,9.75
2023-03-18T09:25:28.237Z,9.13
2023-03-18T09:27:55.337Z,8.70
2023-03-18T09:30:22.897Z,9.63
2023-03-18T09:32:49.991Z,8.82
2023-03-18T09:35:17.220Z,8.75
2023-03-18T09:37:44.803Z,8.95
2023-03-18T09:40:26.238Z,9.63
2023-03-18T09:43:10.537Z,9.25
2023-03-18T09:45:45.090Z,9.52
2023-03-18T09:48:36.603Z,9.30
2023-03-18T09:51:21.925Z,9.70
2023-03-18T09:53:57.018Z,8.73
2023-03-18T09:56:29.096Z,9.70
2023-03-18T09:59:03.673Z,9.90
2023-03-18T10:01:35.778Z,9.38
2023-03-18T10:04:05.700Z,9.70
2023-03-18T10:06:33.932Z,9.02
2023-03-18T10:09:00.950Z,9.70
2023-03-18T10:11:35.637Z,8.98
2023-03-18T10:14:27.023Z,9.10
2023-03-18T10:17:15.456Z,9.40
2023-03-18T10:19:48.375Z,9.35
2023-03-18T10:22:24.689Z,8.88
2023-03-18T10:25:12.949Z,9.70
2023-03-18T10:28:09.321Z,9.40
2023-03-18T10:31:07.445Z,9.25
2023-03-18T10:33:45.221Z,10.05
2023-03-18T10:36:22.588Z,9.55
2023-03-18T10:38:51.922Z,8.82
2023-03-18T10:41:25.400Z,10.50
2023-03-18T10:43:55.816Z,9.30
2023-03-18T10:46:26.185Z,9.77
2023-03-18T10:51:52.783Z,9.77
2023-03-18T10:54:19.900Z,9.43
2023-03-18T10:56:47.627Z,9.52
2023-03-18T10:59:18.638Z,10.35
2023-03-18T11:01:50.832Z,9.98
2023-03-18T11:04:21.799Z,9.45
2023-03-18T11:06:55.908Z,10.15
2023-03-18T11:09:30.251Z,8.80
2023-03-18T11:12:02.958Z,9.57
2023-03-18T11:14:31.556Z,10.63
2023-03-18T11:17:01.679Z,8.48
2023-03-18T11:19:41.516Z,8.10
2023-03-18T11:22:19.537Z,9.75
2023-03-18T11:24:47.088Z,8.27
2023-03-18T11:27:14.405Z,8.07
2023-03-18T11:29:54.553Z,7.80
2023-03-18T11:32:34.367Z,6.90
2023-03-18T11:35:03.054Z,7.65
2023-03-18T11:37:38.340Z,7.95
2023-03-18T11:40:14.309Z,8.20
2023-03-18T11:42:42.586Z,7.97
2023-03-18T11:45:28.057Z,7.15
2023-03-18T11:47:55.533Z,7.00
2023-03-18T11:50:26.219Z,7.30
2023-03-18T11:53:13.556Z,8.50
2023-03-18T11:55:57.073Z,7.72
2023-03-18T11:58:54.799Z,7.85
2023-03-18T12:01:51.117Z,7.60
2023-03-18T12:04:52.699Z,8.38
2023-03-18T12:07:26.681Z,7.72
2023-03-18T12:10:36.399Z,7.25
2023-03-18T12:13:22.581Z,7.53
2023-03-18T12:16:11.143Z,8.32
2023-03-18T12:18:55.840Z,8.00
2023-03-18T12:21:35.149Z,8.23
2023-03-18T12:24:32.425Z,7.32
2023-03-18T12:27:17.928Z,8.00
2023-03-18T12:30:06.906Z,7.95
2023-03-18T12:33:01.622Z,7.20
2023-03-18T12:36:04.364Z,7.97
2023-03-18T12:38:49.911Z,7.15
2023-03-18T12:41:36.027Z,7.50
2023-03-18T12:44:48.188Z,7.20
2023-03-18T12:47:25.322Z,7.53
2023-03-18T12:49:58.561Z,8.18
2023-03-18T12:52:31.612Z,8.98
2023-03-18T12:55:15.024Z,8.10
2023-03-18T12:57:59.771Z,7.63
2023-03-18T13:00:47.387Z,8.23
2023-03-18T13:03:32.755Z,8.80
2023-03-18T13:06:41.223Z,9.00
2023-03-18T13:09:08.361Z,8.27
2023-03-18T13:12:09.319Z,8.10
2023-03-18T13:14:43.063Z,8.45
2023-03-18T13:17:40.144Z,8.52
2023-03-18T13:20:15.409Z,7.22
2023-03-18T13:22:42.457Z,6.82
2023-03-18T13:25:33.699Z,6.75
2023-03-18T13:28:18.691Z,6.60
2023-03-18T13:30:51.564Z,7.18
2023-03-18T13:33:39.959Z,7.40
2023-03-18T13:36:38.418Z,6.72
2023-03-18T13:39:37.627Z,6.82
2023-03-18T13:42:24.580Z,6.97
2023-03-18T13:45:18.978Z,6.78
2023-03-18T13:47:46.629Z,6.82
2023-03-18T13:50:19.483Z,6.40
2023-03-18T13:52:48.205Z,6.57
2023-03-18T13:55:40.263Z,6.18
2023-03-18T13:58:19.655Z,7.22
2023-03-18T14:01:15.851Z,6.88
2023-03-18T14:03:43.011Z,6.88
2023-03-18T14:06:15.673Z,6.93
2023-03-18T14:08:43.056Z,7.10
2023-03-18T14:11:17.312Z,6.38
2023-03-18T14:13:49.961Z,6.70
2023-03-18T14:16:23.408Z,7.03
2023-03-18T14:18:58.750Z,7.35
2023-03-18T14:21:28.648Z,6.88
2023-03-18T14:24:07.631Z,7.22
2023-03-18T14:26:35.145Z,8.23
2023-03-18T14:29:07.975Z,7.82
2023-03-18T14:31:41.908Z,7.75
2023-03-18T14:34:17.949Z,7.97
2023-03-18T14:36:54.216Z,8.13
2023-03-18T14:39:22.276Z,7.40
2023-03-18T14:41:55.654Z,8.48
2023-03-18T14:44:34.538Z,7.75
2023-03-18T14:47:06.810Z,8.30
2023-03-18T14:49:54.905Z,7.72
2023-03-18T14:52:35.810Z,8.13
2023-03-18T14:55:08.604Z,8.35
2023-03-18T14:57:35.972Z,7.72
2023-03-18T15:00:06.880Z,8.20
2023-03-18T15:02:38.171Z,7.88
2023-03-18T15:05:06.952Z,8.55
2023-03-18T15:07:37.008Z,9.10
2023-03-18T15:10:11.446Z,8.25
2023-03-18T15:12:39.091Z,8.20
2023-03-18T15:15:13.271Z,9.30
2023-03-18T15:17:40.419Z,8.75
2023-03-18T15:20:13.157Z,8.80
2023-03-18T15:22:40.407Z,9.55
2023-03-18T15:25:11.402Z,9.05
2023-03-18T15:27:38.784Z,9.60
2023-03-18T15:30:07.549Z,9.50
2023-03-18T15:32:46.174Z,9.98
2023-03-18T15:35:26.949Z,9.77
2023-03-18T15:38:12.449Z,9.55
2023-03-18T15:40:48.342Z,9.13
2023-03-18T15:43:38.508Z,9.93
2023-03-18T15:46:27.704Z,10.38
2023-03-18T15:48:56.921Z,10.30
2023-03-18T15:51:25.970Z,9.45
2023-03-18T15:53:56.261Z,10.13
2023-03-18T15:56:30.356Z,9.30
2023-03-18T15:58:59.875Z,8.77
2023-03-18T16:01:27.126Z,8.32
2023-03-18T16:03:54.904Z,8.80
2023-03-18T16:06:23.059Z,8.80
2023-03-18T16:08:50.275Z,8.98
2023-03-18T16:11:17.598Z,9.57
2023-03-18T16:13:45.528Z,11.00
2023-03-18T16:16:18.962Z,10.90
2023-03-18T16:18:46.866Z,13.70
2023-03-18T16:21:15.011Z,12.60
2023-03-18T16:23:43.249Z,10.68
2023-03-18T16:26:17.629Z,8.60
2023-03-18T16:28:48.204Z,8.38
2023-03-18T16:31:15.658Z,8.57
2023-03-18T16:33:43.341Z,8.00
2023-03-18T16:36:23.220Z,8.10
2023-03-18T16:38:50.876Z,8.35
2023-03-18T16:41:18.340Z,8.68
2023-03-18T16:43:46.007Z,9.05
2023-03-18T16:46:14.728Z,8.13
2023-03-18T16:48:41.803Z,8.35
2023-03-18T16:51:08.955Z,8.40
2023-03-18T16:53:36.131Z,8.70
2023-03-18T16:56:20.894Z,8.85
2023-03-18T16:58:48.115Z,8.95
2023-03-18T17:01:16.931Z,8.45
2023-03-18T17:03:44.431Z,8.38
2023-03-18T17:06:13.445Z,7.68
2023-03-18T17:08:41.030Z,8.57
2023-03-18T17:11:10.415Z,9.20
2023-03-18T17:13:40.532Z,9.02
2023-03-18T17:16:17.329Z,9.07
2023-03-18T17:18:44.462Z,9.77
2023-03-18T17:21:12.685Z,11.52
2023-03-18T17:23:40.192Z,11.77
2023-03-18T17:26:11.591Z,11.02
2023-03-18T17:28:45.733Z,11.13
2023-03-18T17:31:13.720Z,10.10
2023-03-18T17:33:41.349Z,10.70
2023-03-18T17:36:09.691Z,9.98
2023-03-18T17:38:36.855Z,10.45
2023-03-18T17:41:13.136Z,11.05
2023-03-18T17:43:40.514Z,11.70
2023-03-18T17:46:08.452Z,13.00
2023-03-18T17:49:01.337Z,13.52
2023-03-18T17:51:28.501Z,15.25
2023-03-18T17:54:00.448Z,14.98
2023-03-18T17:56:28.090Z,14.50
2023-03-18T17:58:55.461Z,15.38
2023-03-18T18:01:27.549Z,16.90
2023-03-18T18:03:56.287Z,16.55
2023-03-18T18:06:29.281Z,16.45
2023-03-18T18:09:01.192Z,16.88
2023-03-18T18:11:34.966Z,15.50
2023-03-18T18:14:29.180Z,16.85
2023-03-18T18:16:56.843Z,17.45
2023-03-18T18:19:24.674Z,17.08
2023-03-18T18:21:53.275Z,18.75
2023-03-18T18:24:31.839Z,18.33
2023-03-18T18:26:59.406Z,17.98
2023-03-18T18:29:29.759Z,17.92
2023-03-18T18:34:24.831Z,17.45
2023-03-18T18:36:52.797Z,19.20
2023-03-18T18:39:21.185Z,19.67
2023-03-18T18:41:48.701Z,19.98
2023-03-18T18:44:16.347Z,19.40
2023-03-18T18:46:44.280Z,20.55
2023-03-18T18:49:23.473Z,19.42
2023-03-18T18:51:56.058Z,19.90
2023-03-18T18:54:24.334Z,20.15
2023-03-18T18:56:52.446Z,20.35
2023-03-18T18:59:27.855Z,20.02
2023-03-18T19:01:55.987Z,19.55
2023-03-18T19:04:24.191Z,20.27
2023-03-18T19:06:52.910Z,19.48
2023-03-18T19:09:25.258Z,18.75
2023-03-18T19:11:53.822Z,18.25
2023-03-18T19:14:24.795Z,19.73
2023-03-18T19:16:53.948Z,19.80
2023-03-18T19:19:24.840Z,20.75
2023-03-18T19:21:52.184Z,19.55
2023-03-18T19:24:38.475Z,19.75
2023-03-18T19:27:27.775Z,19.52
2023-03-18T19:29:58.855Z,18.88
2023-03-18T19:32:27.357Z,19.95
2023-03-18T19:34:54.989Z,19.05
2023-03-18T19:37:25.063Z,18.60
2023-03-18T19:39:52.445Z,18.90
2023-03-18T19:42:19.739Z,19.25
2023-03-18T19:44:47.820Z,20.10
2023-03-18T19:47:27.137Z,20.45
2023-03-18T19:49:55.381Z,20.17
2023-03-18T19:52:25.408Z,19.42
2023-03-18T19:54:53.711Z,19.83
2023-03-18T19:57:28.937Z,19.08
2023-03-18T20:00:00.979Z,20.17
2023-03-18T20:02:30.742Z,20.80
2023-03-18T20:05:00.737Z,18.80
2023-03-18T20:07:30.244Z,19.48
2023-03-18T20:09:57.757Z,19.50
2023-03-18T20:12:31.478Z,18.63
2023-03-18T20:14:58.543Z,19.23
2023-03-18T20:17:34.427Z,17.10
2023-03-18T20:20:01.634Z,19.33
2023-03-18T20:22:36.181Z,18.30
2023-03-18T20:25:06.386Z,18.85
2023-03-18T20:27:33.588Z,19.45
2023-03-18T20:30:01.436Z,18.13
2023-03-18T20:32:28.676Z,19.20
2023-03-18T20:34:55.939Z,20.00
2023-03-18T20:37:34.989Z,19.85
2023-03-18T20:40:04.158Z,19.77
2023-03-18T20:42:32.136Z,20.02
2023-03-18T20:44:59.369Z,20.63
2023-03-18T20:47:26.501Z,20.58
2023-03-18T20:49:54.936Z,21.45
2023-03-18T20:52:28.649Z,19.75
2023-03-18T20:54:57.510Z,19.80
2023-03-18T20:57:25.930Z,20.23
2023-03-18T20:59:53.246Z,20.75
2023-03-18T21:02:30.100Z,19.88
2023-03-18T21:04:58.344Z,19.35
2023-03-18T21:07:26.340Z,19.95
2023-03-18T21:09:54.188Z,19.00
2023-03-18T21:12:22.235Z,19.23
2023-03-18T21:14:50.343Z,20.00
2023-03-18T21:17:25.700Z,21.30
2023-03-18T21:20:05.038Z,20.88
2023-03-18T21:22:38.790Z,19.83
2023-03-18T21:25:08.861Z,20.92
2023-03-18T21:30:04.584Z,20.98
2023-03-18T21:32:32.979Z,21.40
2023-03-18T21:35:00.599Z,21.23
2023-03-18T21:37:27.700Z,20.42
2023-03-18T21:39:55.260Z,20.42
2023-03-18T21:42:23.824Z,20.40
2023-03-18T21:44:51.747Z,21.20
2023-03-18T21:47:21.862Z,19.80
2023-03-18T21:49:49.424Z,21.45
2023-03-18T21:52:27.803Z,20.90
2023-03-18T21:54:54.944Z,22.25
2023-03-18T21:57:23.690Z,22.02
2023-03-18T21:59:52.348Z,20.42
2023-03-18T22:02:37.905Z,22.42
2023-03-18T22:05:11.585Z,21.33
2023-03-18T22:07:38.857Z,22.65
2023-03-18T22:10:07.346Z,22.52
2023-03-18T22:12:34.950Z,22.83
2023-03-18T22:15:02.079Z,23.83
2023-03-18T22:17:34.037Z,21.23
2023-03-18T22:20:01.971Z,21.50
2023-03-18T22:22:36.956Z,21.63
2023-03-18T22:25:04.671Z,20.38
2023-03-18T22:27:32.712Z,21.63
2023-03-18T22:30:01.170Z,21.85
2023-03-18T22:32:40.990Z,22.08
2023-03-18T22:35:20.965Z,22.80
2023-03-18T22:37:48.812Z,22.88
2023-03-18T22:40:33.858Z,21.63
2023-03-18T22:43:01.810Z,22.48
2023-03-18T22:45:33.140Z,22.67
2023-03-18T22:48:04.530Z,21.92
2023-03-18T22:50:34.784Z,22.38
2023-03-18T22:55:39.062Z,22.40
2023-03-18T22:58:16.659Z,21.73
2023-03-18T23:00:45.068Z,22.38
2023-03-18T23:03:20.477Z,21.30
2023-03-18T23:05:49.281Z,22.42
2023-03-18T23:08:16.856Z,22.02
2023-03-18T23:10:44.570Z,21.95
2023-03-18T23:13:21.879Z,22.08
2023-03-18T23:15:48.940Z,22.50
2023-03-18T23:18:18.012Z,21.98
2023-03-18T23:20:47.219Z,23.70
2023-03-18T23:23:15.382Z,24.55
2023-03-18T23:25:45.212Z,22.98
2023-03-18T23:28:12.960Z,22.45
2023-03-18T23:30:42.925Z,23.33
2023-03-18T23:33:11.049Z,25.00
2023-03-18T23:35:38.931Z,23.70
2023-03-18T23:38:06.724Z,24.15
2023-03-18T23:40:34.737Z,24.70
2023-03-18T23:43:01.958Z,23.35
2023-03-18T23:45:29.380Z,24.05
2023-03-18T23:47:56.819Z,25.50
2023-03-18T23:50:24.154Z,24.83
2023-03-18T23:52:51.294Z,25.67
2023-03-18T23:55:33.631Z,24.48
2023-03-18T23:58:01.728Z,25.60
